Terminal Aerodrome Forecast
Issued by NWS Springfield, MO

Home | Current Version | Previous Version | Text Only | Print | Product List | Glossary On
Versions: 1 2 3 4 5 6 7 8 9 10 11 12 13 14 15 16 17 18 19 20 21 22 23 24 25 26
000
FTUS43 KSGF 191100 CCA
TAFSGF
TAF COR
KSGF 191145Z 1912/2012 09003KT 3SM BR OVC003
     FM191900 VRB03KT 4SM BR OVC006
     FM192200 VRB03KT P6SM OVC008
     FM200300 VRB03KT 3SM BR OVC004
     FM200700 VRB03KT 1SM BR OVC002=

USA.gov is the U.S. government's official web portal to all federal, state and local government web resources and services.